createdAt,value
2022-12-06T00:01:58.778Z,4.95
2022-12-06T00:04:28.039Z,4.94
2022-12-06T00:06:59.478Z,4.93
2022-12-06T00:09:30.918Z,4.87
2022-12-06T00:12:00.511Z,4.85
2022-12-06T00:14:32.602Z,4.86
2022-12-06T00:17:01.854Z,4.85
2022-12-06T00:19:31.892Z,4.87
2022-12-06T00:22:02.483Z,4.86
2022-12-06T00:24:31.784Z,4.78
2022-12-06T00:27:04.220Z,4.81
2022-12-06T00:29:33.501Z,4.82
2022-12-06T00:32:05.147Z,4.76
2022-12-06T00:34:34.459Z,4.70
2022-12-06T00:37:05.014Z,4.73
2022-12-06T00:39:34.310Z,4.63
2022-12-06T00:42:03.401Z,4.61
2022-12-06T00:44:32.625Z,4.60
2022-12-06T00:47:04.806Z,4.63
2022-12-06T00:49:34.848Z,4.61
2022-12-06T00:52:06.311Z,4.66
2022-12-06T00:54:41.383Z,4.64
2022-12-06T00:57:11.072Z,3.94
2022-12-06T00:59:45.210Z,4.55
2022-12-06T01:02:16.668Z,4.64
2022-12-06T01:04:49.432Z,4.55
2022-12-06T01:07:20.372Z,4.63
2022-12-06T01:09:49.997Z,4.49
2022-12-06T01:12:19.007Z,4.64
2022-12-06T01:14:48.080Z,4.59
2022-12-06T01:17:18.518Z,4.53
2022-12-06T01:19:51.853Z,4.49
2022-12-06T01:22:21.988Z,4.48
2022-12-06T01:24:50.784Z,4.49
2022-12-06T01:27:19.567Z,4.47
2022-12-06T01:29:48.590Z,4.37
2022-12-06T01:32:17.483Z,4.32
2022-12-06T01:34:46.306Z,4.45
2022-12-06T01:37:15.115Z,4.44
2022-12-06T01:39:45.317Z,4.42
2022-12-06T01:42:15.234Z,4.44
2022-12-06T01:44:46.438Z,4.47
2022-12-06T01:47:20.010Z,4.46
2022-12-06T01:49:54.330Z,4.45
2022-12-06T01:52:31.851Z,4.39
2022-12-06T01:55:08.216Z,4.40
2022-12-06T01:57:37.367Z,4.44
2022-12-06T02:00:10.992Z,4.41
2022-12-06T02:02:40.079Z,4.41
2022-12-06T02:05:11.246Z,4.45
2022-12-06T02:07:41.182Z,4.43
2022-12-06T02:10:14.747Z,4.28
2022-12-06T02:12:46.365Z,4.44
2022-12-06T02:15:15.539Z,4.45
2022-12-06T02:17:49.369Z,4.33
2022-12-06T02:20:26.656Z,4.36
2022-12-06T02:23:49.207Z,4.36
2022-12-06T02:26:28.082Z,4.37
2022-12-06T02:29:23.186Z,4.39
2022-12-06T02:31:59.237Z,4.41
2022-12-06T02:34:35.061Z,4.32
2022-12-06T02:37:12.767Z,4.40
2022-12-06T02:39:48.411Z,4.44
2022-12-06T02:42:24.072Z,4.38
2022-12-06T02:44:55.318Z,3.77
2022-12-06T02:47:31.306Z,4.36
2022-12-06T02:50:02.683Z,4.33
2022-12-06T02:52:33.363Z,4.29
2022-12-06T02:55:03.515Z,4.35
2022-12-06T02:57:42.026Z,4.38
2022-12-06T03:00:38.132Z,4.36
2022-12-06T03:03:21.468Z,4.53
2022-12-06T03:06:06.643Z,4.19
2022-12-06T03:08:44.677Z,4.25
2022-12-06T03:11:14.277Z,4.21
2022-12-06T03:13:53.991Z,4.21
2022-12-06T03:16:29.188Z,4.11
2022-12-06T03:19:07.898Z,4.16
2022-12-06T03:21:42.975Z,4.19
2022-12-06T03:24:15.168Z,4.24
2022-12-06T03:26:48.838Z,4.17
2022-12-06T03:29:21.441Z,4.05
2022-12-06T03:31:53.256Z,4.13
2022-12-06T03:34:27.518Z,4.14
2022-12-06T03:36:57.354Z,4.15
2022-12-06T03:39:30.663Z,4.11
2022-12-06T03:42:03.056Z,4.14
2022-12-06T03:44:32.268Z,4.13
2022-12-06T03:47:07.945Z,4.17
2022-12-06T03:49:43.886Z,4.19
2022-12-06T03:52:14.204Z,4.13
2022-12-06T03:54:43.615Z,4.09
2022-12-06T03:57:12.650Z,4.22
2022-12-06T03:59:43.968Z,4.49
2022-12-06T04:02:12.737Z,4.28
2022-12-06T04:04:42.893Z,4.16
2022-12-06T04:07:13.327Z,4.18
2022-12-06T04:09:56.676Z,4.08
2022-12-06T04:12:43.453Z,4.02
2022-12-06T04:15:13.000Z,4.01
2022-12-06T04:18:02.048Z,4.11
2022-12-06T04:20:52.885Z,4.05
2022-12-06T04:23:21.738Z,4.02
2022-12-06T04:25:51.886Z,3.92
2022-12-06T04:28:41.891Z,3.82
2022-12-06T04:31:28.481Z,3.85
2022-12-06T04:34:19.337Z,3.81
2022-12-06T04:37:14.904Z,3.81
2022-12-06T04:39:44.456Z,3.82
2022-12-06T04:42:31.589Z,3.84
2022-12-06T04:45:00.825Z,3.84
2022-12-06T04:47:30.327Z,3.12
2022-12-06T04:49:59.577Z,3.78
2022-12-06T04:52:35.609Z,3.82
2022-12-06T04:55:06.772Z,3.87
2022-12-06T04:57:38.636Z,3.78
2022-12-06T05:00:09.069Z,3.75
2022-12-06T05:02:38.092Z,3.71
2022-12-06T05:05:08.138Z,3.71
2022-12-06T05:07:38.533Z,3.70
2022-12-06T05:10:10.460Z,3.72
2022-12-06T05:12:39.675Z,3.64
2022-12-06T05:15:15.874Z,3.63
2022-12-06T05:17:45.754Z,3.71
2022-12-06T05:20:15.521Z,3.69
2022-12-06T05:22:45.959Z,3.73
2022-12-06T05:25:16.900Z,3.87
2022-12-06T05:27:46.007Z,4.11
2022-12-06T05:30:18.026Z,4.01
2022-12-06T05:32:53.866Z,3.94
2022-12-06T05:35:26.250Z,3.84
2022-12-06T05:37:56.823Z,3.77
2022-12-06T05:40:25.541Z,3.79
2022-12-06T05:42:56.892Z,3.86
2022-12-06T05:45:25.530Z,3.75
2022-12-06T05:47:57.028Z,3.80
2022-12-06T05:50:25.753Z,3.90
2022-12-06T05:53:00.107Z,3.69
2022-12-06T05:55:29.390Z,3.83
2022-12-06T05:57:58.147Z,3.81
2022-12-06T06:00:27.041Z,3.76
2022-12-06T06:02:56.271Z,3.68
2022-12-06T06:05:25.531Z,3.45
2022-12-06T06:07:55.157Z,3.58
2022-12-06T06:10:26.162Z,3.78
2022-12-06T06:12:54.809Z,3.76
2022-12-06T06:15:24.240Z,3.68
2022-12-06T06:17:55.718Z,3.57
2022-12-06T06:20:24.337Z,3.52
2022-12-06T06:22:54.338Z,3.52
2022-12-06T06:25:23.010Z,3.46
2022-12-06T06:27:54.523Z,3.33
2022-12-06T06:30:23.711Z,3.23
2022-12-06T06:32:52.812Z,3.23
2022-12-06T06:35:25.153Z,3.01
2022-12-06T06:37:54.142Z,3.07
2022-12-06T06:40:23.690Z,3.02
2022-12-06T06:42:54.213Z,3.06
2022-12-06T06:45:28.396Z,2.93
2022-12-06T06:47:58.206Z,2.83
2022-12-06T06:50:27.616Z,2.77
2022-12-06T06:52:56.690Z,2.72
2022-12-06T06:55:27.840Z,2.68
2022-12-06T06:57:58.329Z,2.68
2022-12-06T07:00:27.279Z,2.63
2022-12-06T07:02:55.938Z,2.61
2022-12-06T07:05:27.171Z,2.47
2022-12-06T07:07:57.791Z,2.54
2022-12-06T07:10:27.520Z,2.52
2022-12-06T07:12:59.845Z,2.50
2022-12-06T07:15:28.642Z,2.45
2022-12-06T07:17:57.400Z,2.42
2022-12-06T07:20:26.192Z,2.37
2022-12-06T07:23:01.511Z,2.38
2022-12-06T07:25:32.076Z,2.33
2022-12-06T07:28:03.037Z,2.30
2022-12-06T07:30:32.023Z,2.31
2022-12-06T07:33:00.769Z,2.21
2022-12-06T07:36:03.160Z,2.22
2022-12-06T07:38:19.178Z,2.21
2022-12-06T07:41:03.894Z,2.17
2022-12-06T07:43:55.599Z,2.16
2022-12-06T07:46:24.580Z,2.16
2022-12-06T07:48:53.340Z,2.15
2022-12-06T07:51:22.100Z,2.16
2022-12-06T07:53:53.164Z,2.31
2022-12-06T07:56:22.128Z,2.21
2022-12-06T07:58:52.722Z,2.39
2022-12-06T08:01:23.021Z,2.41
2022-12-06T08:03:53.682Z,2.23
2022-12-06T08:06:22.715Z,2.45
2022-12-06T08:08:54.116Z,2.52
2022-12-06T08:11:25.780Z,2.57
2022-12-06T08:13:56.392Z,2.67
2022-12-06T08:16:25.242Z,2.56
2022-12-06T08:18:53.948Z,2.61
2022-12-06T08:21:23.153Z,2.70
2022-12-06T08:23:53.034Z,2.72
2022-12-06T08:26:22.136Z,2.56
2022-12-06T08:28:53.343Z,2.63
2022-12-06T08:31:25.314Z,2.69
2022-12-06T08:33:54.332Z,2.79
2022-12-06T08:36:24.790Z,2.57
2022-12-06T08:38:54.259Z,2.82
2022-12-06T08:41:41.785Z,2.70
2022-12-06T08:44:14.309Z,2.81
2022-12-06T08:46:44.975Z,2.91
2022-12-06T08:49:15.020Z,2.71
2022-12-06T08:51:44.256Z,2.75
2022-12-06T08:54:15.441Z,2.81
2022-12-06T08:56:44.708Z,2.77
2022-12-06T08:59:14.524Z,2.75
2022-12-06T09:01:46.318Z,2.67
2022-12-06T09:04:15.339Z,3.00
2022-12-06T09:06:47.444Z,2.91
2022-12-06T09:09:17.972Z,2.99
2022-12-06T09:11:51.624Z,3.12
2022-12-06T09:14:22.540Z,3.01
2022-12-06T09:16:53.361Z,3.25
2022-12-06T09:19:22.357Z,3.21
2022-12-06T09:21:56.081Z,3.12
2022-12-06T09:24:28.964Z,3.30
2022-12-06T09:26:57.952Z,3.21
2022-12-06T09:29:26.724Z,3.02
2022-12-06T09:31:56.888Z,3.29
2022-12-06T09:34:25.684Z,3.24
2022-12-06T09:36:59.433Z,3.24
2022-12-06T09:39:32.985Z,3.56
2022-12-06T09:42:40.051Z,3.55
2022-12-06T09:45:46.517Z,3.46
2022-12-06T09:48:42.966Z,3.65
2022-12-06T09:51:31.264Z,3.97
2022-12-06T09:54:15.965Z,3.88
2022-12-06T09:56:55.845Z,4.03
2022-12-06T09:59:34.051Z,4.38
2022-12-06T10:02:24.111Z,4.58
2022-12-06T10:05:17.473Z,4.76
2022-12-06T10:08:00.397Z,4.79
2022-12-06T10:10:40.406Z,4.80
2022-12-06T10:13:14.668Z,5.01
2022-12-06T10:15:54.117Z,4.91
2022-12-06T10:18:40.119Z,4.71
2022-12-06T10:24:51.607Z,4.77
2022-12-06T10:27:27.264Z,4.87
2022-12-06T10:30:01.890Z,4.88
2022-12-06T10:32:49.921Z,4.93
2022-12-06T10:35:25.662Z,5.08
2022-12-06T10:38:08.400Z,5.15
2022-12-06T10:40:47.871Z,5.37
2022-12-06T10:43:23.627Z,5.33
2022-12-06T10:46:21.477Z,5.46
2022-12-06T10:48:59.776Z,5.52
2022-12-06T10:51:37.189Z,5.90
2022-12-06T10:54:19.457Z,6.09
2022-12-06T10:56:52.564Z,6.29
2022-12-06T10:59:29.257Z,6.32
2022-12-06T11:02:03.065Z,6.68
2022-12-06T11:04:38.027Z,6.78
2022-12-06T11:07:14.341Z,6.80
2022-12-06T11:09:47.201Z,7.05
2022-12-06T11:12:29.578Z,7.08
2022-12-06T11:15:03.116Z,7.20
2022-12-06T11:17:35.542Z,7.33
2022-12-06T11:20:12.782Z,7.67
2022-12-06T11:22:48.624Z,7.68
2022-12-06T11:25:26.919Z,7.42
2022-12-06T11:28:01.486Z,7.57
2022-12-06T11:30:31.544Z,7.37
2022-12-06T11:33:02.968Z,7.21
2022-12-06T11:35:32.952Z,7.13
2022-12-06T11:38:05.270Z,7.24
2022-12-06T11:40:40.993Z,7.25
2022-12-06T11:43:16.878Z,7.40
2022-12-06T11:45:47.149Z,7.68
2022-12-06T11:48:21.230Z,7.46
2022-12-06T11:50:52.420Z,8.24
2022-12-06T11:53:28.155Z,8.46
2022-12-06T11:56:02.407Z,8.28
2022-12-06T11:58:38.883Z,8.00
2022-12-06T12:01:13.943Z,7.88
2022-12-06T12:03:47.421Z,7.93
2022-12-06T12:06:22.701Z,7.46
2022-12-06T12:08:53.697Z,7.60
2022-12-06T12:11:26.652Z,7.55
2022-12-06T12:13:59.343Z,7.58
2022-12-06T12:16:30.709Z,7.43
2022-12-06T12:19:01.489Z,7.49
2022-12-06T12:21:34.318Z,7.49
2022-12-06T12:24:04.057Z,7.46
2022-12-06T12:26:40.086Z,7.54
2022-12-06T12:29:18.312Z,7.41
2022-12-06T12:31:53.567Z,7.32
2022-12-06T12:34:26.770Z,7.47
2022-12-06T12:36:57.733Z,7.51
2022-12-06T12:39:39.881Z,7.33
2022-12-06T12:42:32.989Z,7.49
2022-12-06T12:45:06.153Z,7.46
2022-12-06T12:47:36.467Z,7.54
2022-12-06T12:50:20.444Z,7.49
2022-12-06T12:52:49.168Z,7.70
2022-12-06T12:55:21.220Z,7.74
2022-12-06T12:57:55.233Z,7.80
2022-12-06T13:00:25.840Z,8.05
2022-12-06T13:02:59.887Z,7.90
2022-12-06T13:05:33.879Z,7.92
2022-12-06T13:08:12.594Z,7.41
2022-12-06T13:10:45.710Z,7.19
2022-12-06T13:13:19.488Z,7.03
2022-12-06T13:15:50.345Z,7.21
2022-12-06T13:18:25.259Z,7.16
2022-12-06T13:20:55.913Z,7.25
2022-12-06T13:23:27.895Z,7.03
2022-12-06T13:26:04.791Z,6.92
2022-12-06T13:28:40.932Z,6.74
2022-12-06T13:31:17.229Z,6.89
2022-12-06T13:33:51.770Z,7.06
2022-12-06T13:36:25.125Z,6.73
2022-12-06T13:38:57.185Z,6.67
2022-12-06T13:42:13.821Z,6.72
2022-12-06T13:44:54.430Z,6.19
2022-12-06T13:47:51.476Z,7.09
2022-12-06T13:50:50.826Z,7.11
2022-12-06T13:53:20.213Z,6.79
2022-12-06T13:56:02.454Z,6.96
2022-12-06T13:58:52.913Z,6.87
2022-12-06T14:01:40.520Z,6.95
2022-12-06T14:07:05.485Z,6.83
2022-12-06T14:09:43.162Z,6.82
2022-12-06T14:12:20.710Z,6.92
2022-12-06T14:14:57.511Z,6.87
2022-12-06T14:18:01.235Z,6.90
2022-12-06T14:20:30.195Z,7.00
2022-12-06T14:23:02.027Z,6.86
2022-12-06T14:25:31.638Z,6.92
2022-12-06T14:28:05.778Z,7.07
2022-12-06T14:31:05.815Z,7.12
2022-12-06T14:33:40.433Z,7.06
2022-12-06T14:36:18.378Z,6.98
2022-12-06T14:38:54.064Z,6.67
2022-12-06T14:41:40.833Z,6.74
2022-12-06T14:44:14.994Z,6.82
2022-12-06T14:46:48.625Z,6.69
2022-12-06T14:49:40.191Z,6.48
2022-12-06T14:52:26.888Z,6.72
2022-12-06T14:55:16.572Z,6.55
2022-12-06T14:57:48.371Z,6.50
2022-12-06T15:00:27.211Z,6.45
2022-12-06T15:03:16.796Z,6.45
2022-12-06T15:05:51.957Z,6.46
2022-12-06T15:08:33.401Z,6.39
2022-12-06T15:11:05.645Z,6.34
2022-12-06T15:13:33.581Z,6.33
2022-12-06T15:16:13.764Z,6.29
2022-12-06T15:18:45.903Z,6.14
2022-12-06T15:21:18.135Z,6.24
2022-12-06T15:23:51.226Z,6.30
2022-12-06T15:26:24.241Z,6.26
2022-12-06T15:28:53.506Z,6.18
2022-12-06T15:31:26.741Z,6.37
2022-12-06T15:33:56.721Z,5.56
2022-12-06T15:36:29.691Z,6.31
2022-12-06T15:39:01.472Z,6.60
2022-12-06T15:41:30.254Z,6.47
2022-12-06T15:43:59.484Z,6.08
2022-12-06T15:46:57.021Z,5.96
2022-12-06T15:49:27.079Z,5.71
2022-12-06T15:51:57.335Z,5.80
2022-12-06T15:54:27.680Z,5.85
2022-12-06T15:56:56.655Z,5.79
2022-12-06T15:59:25.738Z,5.81
2022-12-06T16:01:54.436Z,5.68
2022-12-06T16:04:30.545Z,5.74
2022-12-06T16:07:00.918Z,5.07
2022-12-06T16:09:30.240Z,5.67
2022-12-06T16:11:59.807Z,5.75
2022-12-06T16:14:29.070Z,5.72
2022-12-06T16:16:58.611Z,5.61
2022-12-06T16:19:47.939Z,5.66
2022-12-06T16:22:18.092Z,5.74
2022-12-06T16:24:52.364Z,5.76
2022-12-06T16:27:23.061Z,5.69
2022-12-06T16:29:53.823Z,5.63
2022-12-06T16:32:25.301Z,5.57
2022-12-06T16:34:54.032Z,5.87
2022-12-06T16:37:53.200Z,5.99
2022-12-06T16:40:24.600Z,6.09
2022-12-06T16:42:53.891Z,5.95
2022-12-06T16:45:23.914Z,5.92
2022-12-06T16:47:54.511Z,5.70
2022-12-06T16:50:28.271Z,5.62
2022-12-06T16:52:59.054Z,5.48
2022-12-06T16:55:28.738Z,5.47
2022-12-06T16:57:57.880Z,5.21
2022-12-06T17:00:27.090Z,4.79
2022-12-06T17:02:56.071Z,5.37
2022-12-06T17:05:27.388Z,5.39
2022-12-06T17:07:56.480Z,5.52
2022-12-06T17:10:27.443Z,5.50
2022-12-06T17:12:58.247Z,5.12
2022-12-06T17:15:27.150Z,5.43
2022-12-06T17:18:01.889Z,5.40
2022-12-06T17:20:31.134Z,5.36
2022-12-06T17:23:28.963Z,5.47
2022-12-06T17:25:59.773Z,5.42
2022-12-06T17:28:29.041Z,5.37
2022-12-06T17:30:58.342Z,5.35
2022-12-06T17:33:27.445Z,5.38
2022-12-06T17:35:56.925Z,5.33
2022-12-06T17:38:30.922Z,5.27
2022-12-06T17:41:21.781Z,5.30
2022-12-06T17:43:49.613Z,5.28
2022-12-06T17:46:18.419Z,5.11
2022-12-06T17:48:47.519Z,5.21
2022-12-06T17:51:16.683Z,5.20
2022-12-06T17:53:45.730Z,5.04
2022-12-06T17:56:27.124Z,5.25
2022-12-06T17:58:58.407Z,5.43
2022-12-06T18:01:44.561Z,5.77
2022-12-06T18:04:17.833Z,5.67
2022-12-06T18:06:47.370Z,5.56
2022-12-06T18:09:16.752Z,5.54
2022-12-06T18:11:48.917Z,5.54
2022-12-06T18:14:21.012Z,5.34
2022-12-06T18:16:49.875Z,5.24
2022-12-06T18:19:20.876Z,5.11
2022-12-06T18:21:50.038Z,5.11
2022-12-06T18:24:22.713Z,5.07
2022-12-06T18:27:00.577Z,5.08
2022-12-06T18:29:30.818Z,5.07
2022-12-06T18:32:00.815Z,5.06
2022-12-06T18:34:30.542Z,5.03
2022-12-06T18:37:00.007Z,5.17
2022-12-06T18:39:31.723Z,5.27
2022-12-06T18:42:02.666Z,5.22
2022-12-06T18:44:35.433Z,5.46
2022-12-06T18:47:08.333Z,5.31
2022-12-06T18:49:43.153Z,5.24
2022-12-06T18:52:16.384Z,5.18
2022-12-06T18:54:48.208Z,5.06
2022-12-06T18:57:19.639Z,5.22
2022-12-06T18:59:49.237Z,5.14
2022-12-06T19:02:47.966Z,5.01
2022-12-06T19:05:32.998Z,4.91
2022-12-06T19:08:07.306Z,5.16
2022-12-06T19:10:37.295Z,5.25
2022-12-06T19:13:07.488Z,5.41
2022-12-06T19:15:36.580Z,5.26
2022-12-06T19:18:13.539Z,3.65
2022-12-06T19:20:42.587Z,4.89
2022-12-06T19:23:13.989Z,4.91
2022-12-06T19:25:42.986Z,4.71
2022-12-06T19:28:13.514Z,4.87
2022-12-06T19:30:42.757Z,4.98
2022-12-06T19:33:11.766Z,5.02
2022-12-06T19:35:40.711Z,5.23
2022-12-06T19:38:09.936Z,5.22
2022-12-06T19:40:42.169Z,4.90
2022-12-06T19:43:28.709Z,5.01
2022-12-06T19:46:10.398Z,5.14
2022-12-06T19:48:41.619Z,5.14
2022-12-06T19:51:12.457Z,5.23
2022-12-06T19:53:42.471Z,5.28
2022-12-06T19:56:13.448Z,5.28
2022-12-06T19:58:42.191Z,5.11
2022-12-06T20:01:16.891Z,4.78
2022-12-06T20:03:47.240Z,4.60
2022-12-06T20:06:18.513Z,4.70
2022-12-06T20:08:48.864Z,4.68
2022-12-06T20:11:38.377Z,4.64
2022-12-06T20:14:08.890Z,4.66
2022-12-06T20:16:40.003Z,4.90
2022-12-06T20:19:09.466Z,4.99
2022-12-06T20:21:39.294Z,4.92
2022-12-06T20:24:08.859Z,4.69
2022-12-06T20:26:38.718Z,5.02
2022-12-06T20:29:08.250Z,5.03
2022-12-06T20:31:41.103Z,4.89
2022-12-06T20:34:14.612Z,4.86
2022-12-06T20:36:46.376Z,4.82
2022-12-06T20:39:20.923Z,4.93
2022-12-06T20:41:50.951Z,4.86
2022-12-06T20:44:20.783Z,4.80
2022-12-06T20:46:51.194Z,4.76
2022-12-06T20:49:19.928Z,4.73
2022-12-06T20:51:53.273Z,4.71
2022-12-06T20:54:25.632Z,4.66
2022-12-06T20:56:54.636Z,4.69
2022-12-06T20:59:23.526Z,4.89
2022-12-06T21:01:55.062Z,5.39
2022-12-06T21:04:25.362Z,5.34
2022-12-06T21:06:57.976Z,5.40
2022-12-06T21:09:26.900Z,5.25
2022-12-06T21:11:55.692Z,5.00
2022-12-06T21:14:26.949Z,4.63
2022-12-06T21:17:02.272Z,5.41
2022-12-06T21:19:32.271Z,5.33
2022-12-06T21:22:07.925Z,5.39
2022-12-06T21:24:41.970Z,5.06
2022-12-06T21:27:11.419Z,5.39
2022-12-06T21:29:42.609Z,5.15
2022-12-06T21:32:12.839Z,5.11
2022-12-06T21:34:46.757Z,5.02
2022-12-06T21:37:15.645Z,4.97
2022-12-06T21:39:46.756Z,4.85
2022-12-06T21:42:17.185Z,5.01
2022-12-06T21:44:46.078Z,4.90
2022-12-06T21:47:16.243Z,4.82
2022-12-06T21:49:45.595Z,4.75
2022-12-06T21:52:15.314Z,4.68
2022-12-06T21:54:44.324Z,4.75
2022-12-06T21:57:13.754Z,4.84
2022-12-06T21:59:43.444Z,4.99
2022-12-06T22:02:12.832Z,4.96
2022-12-06T22:04:45.511Z,5.19
2022-12-06T22:07:14.397Z,4.95
2022-12-06T22:09:43.335Z,4.92
2022-12-06T22:12:17.792Z,4.53
2022-12-06T22:14:51.461Z,4.57
2022-12-06T22:17:20.303Z,4.56
2022-12-06T22:19:50.512Z,4.50
2022-12-06T22:22:19.717Z,4.47
2022-12-06T22:24:48.623Z,4.38
2022-12-06T22:27:17.403Z,4.31
2022-12-06T22:29:46.286Z,4.36
2022-12-06T22:32:14.982Z,4.24
2022-12-06T22:34:44.022Z,4.25
2022-12-06T22:37:14.151Z,4.18
2022-12-06T22:39:42.982Z,4.28
2022-12-06T22:42:11.871Z,4.05
2022-12-06T22:44:40.980Z,4.07
2022-12-06T22:47:09.779Z,4.02
2022-12-06T22:49:38.927Z,4.17
2022-12-06T22:52:10.780Z,4.48
2022-12-06T22:54:41.061Z,4.71
2022-12-06T22:57:10.158Z,4.53
2022-12-06T22:59:41.422Z,4.30
2022-12-06T23:02:10.543Z,4.18
2022-12-06T23:04:39.338Z,4.13
2022-12-06T23:07:08.099Z,4.24
2022-12-06T23:09:36.782Z,4.13
2022-12-06T23:12:07.447Z,4.13
2022-12-06T23:14:36.610Z,4.09
2022-12-06T23:17:05.647Z,3.98
2022-12-06T23:19:34.708Z,3.91
2022-12-06T23:22:03.950Z,3.86
2022-12-06T23:24:33.379Z,3.85
2022-12-06T23:27:02.841Z,3.69
2022-12-06T23:29:32.989Z,3.91
2022-12-06T23:32:01.822Z,4.05
2022-12-06T23:34:59.876Z,3.96
2022-12-06T23:37:28.896Z,3.88
2022-12-06T23:39:58.100Z,3.89
2022-12-06T23:42:27.026Z,3.98
2022-12-06T23:44:57.600Z,3.85
2022-12-06T23:47:27.263Z,3.73
2022-12-06T23:49:56.066Z,3.96
2022-12-06T23:52:25.649Z,3.95
2022-12-06T23:54:55.572Z,3.81
2022-12-06T23:57:24.496Z,4.03
2022-12-06T23:59:54.161Z,4.43
